McKean County Weather on FaceBook
Current Metar reports for airports in our Region

Nearby METAR Reports

Metar reports(Meteorological Terminal Aviation Routine) are mainly used by pilots for information on what is happening at their destination during their pre-flight weather briefings and by meteorologists to assist in short term forecasts. A raw Metar is one of the most universal ways to communicate weather information in the world and are usually transmitted by airports, but some come from permanent sanctioned weather observatories.

Listed below are Metars from airports within 100 miles of our station here in Smethport Pa. The first one of course is the Bradford Regional Airport, then the Olean NY airport and so on. Each airport has it's own table to display it's data and at the bottom of the table is 'Raw' Metar for each airport. Most pilots and weather forecasters can look at the raw data and tell you what is up, but we use a script that handles all of the details for us.

KBFD - Bradford, Pennsylvania, USA
Distance from station: NW 7mi, 11km
Updated: Mon, 18-Nov-2019 11:53pm EST
Fog, Overcast
Fog, Overcast
 Wind from calm
Wind: Calm
Temperature: 32°F , 0°C
Dew Point: 28°F , -2°C
Humidity: 87%
Barometer: 29.69 inHg , 1005.4 hPa
Summary: Fog
Clouds: Overcast
Visibility: 1/4 mile , 0.4 km
Cloud details: Overcast 200 ft
2019/11/19 04:53 KBFD 190453Z AUTO 00000KT 1/4SM FG VV002 00/M02 A2969 RMK AO2 SLP069 T00001017 400281011
KOLE - Olean, New York, USA
Distance from station: NNE 37mi, 59km
Updated: Tue, 19-Nov-2019 12:15am EST
Overcast
Overcast
 Wind from calm
Wind: Calm
Temperature: 32°F , 0°C
Dew Point: 32°F , 0°C
Humidity: 100%
Barometer: 29.68 inHg , 1005.1 hPa
Clouds: Overcast
Visibility: 10 miles , 16 km
Cloud details: Overcast 500 ft
2019/11/19 05:15 KOLE 190515Z AUTO 00000KT 10SM OVC005 00/00 A2968 RMK AO2
 
KELZ - Wellsville, New York, USA
Distance from station: NE 40mi, 64km
Updated: Mon, 18-Nov-2019 11:56pm EST
Overcast
Overcast
 Wind from WSW
Wind: WSW 3 mph , 6 km/h
Temperature: 34°F , 1°C
Dew Point: 30°F , -1°C
Humidity: 87%
Barometer: 29.69 inHg , 1005.4 hPa
Clouds: Overcast
Visibility: 10 miles , 16 km
Cloud details: Overcast 900 ft
2019/11/19 04:56 KELZ 190456Z AUTO 25003KT 10SM OVC009 01/M01 A2969 RMK AO2 SLP072 T00111006 400331011
KDUJ - Du Bois, Pennsylvania, USA
Distance from station: SSW 42mi, 68km
Updated: Tue, 19-Nov-2019 12:09am EST
Mist, Clear
Mist, Clear
 Wind from calm
Wind: Calm
Temperature: 30°F , -1°C
Dew Point: 30°F , -1°C
Humidity: 100%
Barometer: 29.69 inHg , 1005.4 hPa
Summary: Mist
Clouds: Clear
Visibility: 1 1/4 miles , 2 km
2019/11/19 05:09 KDUJ 190509Z AUTO 00000KT 1 1/4SM BR CLR M01/M01 A2969 RMK AO2 T10061011 $
 
KJHW - Jamestown, New York, USA
Distance from station: NW 46mi, 75km
Updated: Mon, 18-Nov-2019 11:56pm EST
Mist, Mostly cloudy
Mist, Mostly cloudy
 Wind from SW
Wind: SW 5 mph , 7 km/h
Temperature: 28°F , -2°C
Wind Chill: 22°F , -6°C
Dew Point: 28°F , -2°C
Humidity: 100%
Barometer: 29.70 inHg , 1005.8 hPa
Summary: Mist
Clouds: Mostly Cloudy
Visibility: 5 miles , 8 km
Cloud details: Mostly Cloudy 6000 ft
2019/11/19 04:56 KJHW 190456Z AUTO 22004KT 5SM BR BKN060 M02/M02 A2970 RMK AO2 SLP079 T10171022 400391022 FZRANO
KFIG - Clearfield, Pennsylvania, USA
Distance from station: S 47mi, 75km
Updated: Mon, 18-Nov-2019 11:54pm EST
Overcast
Overcast
 Wind from calm
Wind: Calm
Temperature: 36°F , 2°C
Dew Point: 32°F , 0°C
Humidity: 87%
Barometer: 29.70 inHg , 1005.8 hPa
Clouds: Overcast
Visibility: 10 miles , 16 km
Cloud details: Overcast 600 ft
2019/11/19 04:54 KFIG 190454Z AUTO 00000KT 10SM OVC006 02/00 A2970 RMK AO2 SLP070 T00170000 400501028
 
KDKK - Dunkirk, New York, USA
Distance from station: NW 66mi, 106km
Updated: Mon, 18-Nov-2019 11:53pm EST
Clear
Clear
 Wind from calm
Wind: Calm
Temperature: 28°F , -2°C
Dew Point: 27°F , -3°C
Humidity: 93%
Barometer: 29.74 inHg , 1007.1 hPa
Clouds: Clear
Visibility: 9 miles , 14 km
2019/11/19 04:53 KDKK 190453Z AUTO 00000KT 9SM CLR M02/M03 A2974 RMK AO2 SLP075 I1000 T10171033 400611028
KUNV - State College, Pennsylvania, USA
Distance from station: SSE 71mi, 114km
Updated: Tue, 19-Nov-2019 12:16am EST
Overcast
Overcast
 Wind from calm
Wind: Calm
Temperature: 36°F , 2°C
Dew Point: 34°F , 1°C
Humidity: 93%
Barometer: 29.71 inHg , 1006.1 hPa
Clouds: Overcast
Visibility: 10 miles , 16 km
Cloud details: Overcast 800 ft
2019/11/19 05:16 KUNV 190516Z AUTO 00000KT 10SM OVC008 02/01 A2971 RMK AO2 T00230013
 
KFKL - Franklin, Pennsylvania, USA
Distance from station: WSW 72mi, 116km
Updated: Mon, 18-Nov-2019 11:56pm EST
Clear
Clear
 Wind from WSW
Wind: WSW 5 mph , 7 km/h
Temperature: 30°F , -1°C
Wind Chill: 25°F , -4°C
Dew Point: 28°F , -2°C
Humidity: 93%
Barometer: 29.71 inHg , 1006.1 hPa
Clouds: Clear
Visibility: 10 miles , 16 km
2019/11/19 04:56 KFKL 190456Z AUTO 24004KT 10SM CLR M01/M02 A2971 RMK AO2 SLP075 T10111022 400831028 FZRANO
KDSV - Dansville, New York, USA
Distance from station: NE 73mi, 117km
Updated: Mon, 18-Nov-2019 11:54pm EST
Overcast
Overcast
 Wind from calm
Wind: Calm
Temperature: 36°F , 2°C
Dew Point: 34°F , 1°C
Humidity: 93%
Barometer: 29.73 inHg , 1006.8 hPa
Clouds: Overcast
Visibility: 10 miles , 16 km
Cloud details: Overcast 2900 ft
2019/11/19 04:54 KDSV 190454Z AUTO 00000KT 10SM OVC029 02/01 A2973 RMK AO2 SLP082 T00220006 400610000
 
KIDI - Indiana/Stewart, Pennsylvania, USA
Distance from station: SSW 81mi, 130km
Updated: Tue, 19-Nov-2019 12:15am EST
Partly Cloudy
Partly Cloudy
 Wind from calm
Wind: Calm
Temperature: 32°F , 0°C
Dew Point: 32°F , 0°C
Humidity: 100%
Barometer: 29.75 inHg , 1007.5 hPa
Clouds: Partly Cloudy
Visibility: 7 miles , 11 km
Cloud details: Few Clouds 4100 ft
Partly Cloudy 4900 ft
2019/11/19 05:15 KIDI 190515Z AUTO 00000KT 7SM FEW041 SCT049 00/M00 A2975 RMK A01
KBUF - Buffalo/Cheektow, New York, USA
Distance from station: N 84mi, 136km
Updated: Mon, 18-Nov-2019 11:54pm EST
Mostly Cloudy
Mostly Cloudy
 Wind from NNE
Wind: NNE 5 mph , 7 km/h
Temperature: 36°F , 2°C
Wind Chill: 32°F , 0°C
Dew Point: 30°F , -1°C
Humidity: 81%
Barometer: 29.73 inHg , 1006.8 hPa
Clouds: Mostly Cloudy
Visibility: 10 miles , 16 km
Cloud details: Mostly Cloudy 2200 ft
Mostly Cloudy 15000 ft
Mostly Cloudy 28000 ft
2019/11/19 04:54 KBUF 190454Z 03004KT 10SM BKN022 BKN150 BKN280 02/M01 A2973 RMK AO2 SLP074 T00171006 400501017
 
KGKJ - Meadville, Pennsylvania, USA
Distance from station: W 86mi, 138km
Updated: Mon, 18-Nov-2019 11:53pm EST
Clear
Clear
 Wind from calm
Wind: Calm
Temperature: 32°F , 0°C
Dew Point: 28°F , -2°C
Humidity: 87%
Barometer: 29.71 inHg , 1006.1 hPa
Clouds: Clear
Visibility: 10 miles , 16 km
2019/11/19 04:53 KGKJ 190453Z AUTO 00000KT 10SM CLR 00/M02 A2971 RMK AO2 SLP069 T00001017 400831006 TSNO
KERI - Erie, Pennsylvania, USA
Distance from station: WNW 87mi, 140km
Updated: Mon, 18-Nov-2019 11:51pm EST
Clear
Clear
 Wind from calm
Wind: Calm
Temperature: 30°F , -1°C
Dew Point: 27°F , -3°C
Humidity: 86%
Barometer: 29.73 inHg , 1006.8 hPa
Clouds: Clear
Visibility: 10 miles , 16 km
2019/11/19 04:51 KERI 190451Z AUTO 00000KT 10SM CLR M01/M03 A2973 RMK AO2 SLP073 T10111028 400941011
 
KELM - Elmira, New York, USA
Distance from station: ENE 90mi, 145km
Updated: Mon, 18-Nov-2019 11:53pm EST
Overcast
Overcast
 Wind from calm
Wind: Calm
Temperature: 37°F , 3°C
Dew Point: 34°F , 1°C
Humidity: 87%
Barometer: 29.71 inHg , 1006.1 hPa
Clouds: Overcast
Visibility: 10 miles , 16 km
Cloud details: Overcast 2200 ft
2019/11/19 04:53 KELM 190453Z 00000KT 10SM OVC022 03/01 A2971 RMK AO2 SLP068 T00280006 400610006
KIPT - Williamsport, Pennsylvania, USA
Distance from station: ESE 91mi, 146km
Updated: Mon, 18-Nov-2019 11:54pm EST
Overcast
Overcast
 Wind from W
Wind: W 7 mph , 11 km/h
Temperature: 37°F , 3°C
Wind Chill: 32°F , 0°C
Dew Point: 34°F , 1°C
Humidity: 87%
Barometer: 29.71 inHg , 1006.1 hPa
Clouds: Overcast
Visibility: 10 miles , 16 km
Cloud details: Few Clouds 2000 ft
Overcast 2700 ft
2019/11/19 04:54 KIPT 190454Z AUTO 28006KT 10SM FEW020 OVC027 03/01 A2971 RMK AO2 SLP064 T00330006 400720011
 
KBTP - Butler Co., Pennsylvania, USA
Distance from station: SW 98mi, 157km
Updated: Mon, 18-Nov-2019 11:56pm EST
Clear
Clear
 Wind from calm
Wind: Calm
Temperature: 28°F , -2°C
Dew Point: 28°F , -2°C
Humidity: 100%
Barometer: 29.73 inHg , 1006.8 hPa
Clouds: Clear
Visibility: 8 miles , 13 km
2019/11/19 04:56 KBTP 190456Z AUTO 00000KT 8SM CLR M02/M02 A2973 RMK AO2 SLP082 T10171022 400941028 FZRANO
KAOO - Altoona, Pennsylvania, USA
Distance from station: S 99mi, 159km
Updated: Mon, 18-Nov-2019 11:53pm EST
Clear
Clear
 Wind from SW
Wind: SW 5 mph , 7 km/h
Temperature: 36°F , 2°C
Wind Chill: 32°F , 0°C
Dew Point: 32°F , 0°C
Humidity: 87%
Barometer: 29.71 inHg , 1006.1 hPa
Clouds: Clear
Visibility: 8 miles , 13 km
2019/11/19 04:53 KAOO 190453Z AUTO 22004KT 8SM CLR 02/00 A2971 RMK AO2 SLP072 T00170000 400440006 $
 
KPIT - Pittsburg, Pennsylvania, USA
Distance from station: SSW 126mi, 203km
Updated: Mon, 18-Nov-2019 11:51pm EST
Few Clouds
Few Clouds
 Wind from W
Wind: W 3 mph , 6 km/h
Temperature: 36°F , 2°C
Dew Point: 28°F , -2°C
Humidity: 75%
Barometer: 29.72 inHg , 1006.4 hPa
Clouds: Few Clouds
Visibility: 10 miles , 16 km
Cloud details: Few Clouds 25000 ft
2019/11/19 04:51 KPIT 190451Z 26003KT 10SM FEW250 02/M02 A2972 RMK AO2 SLP078 T00221022 401110000
KCLE - Cleveland, Ohio, USA
Distance from station: WSW 160mi, 258km
Updated: Mon, 18-Nov-2019 11:51pm EST
Mist, Few clouds
Mist, Few clouds
 Wind from calm
Wind: Calm
Temperature: 34°F , 1°C
Dew Point: 30°F , -1°C
Humidity: 87%
Barometer: 29.76 inHg , 1007.8 hPa
Summary: Mist
Clouds: Few Clouds
Visibility: 6 miles , 10 km
Cloud details: Few Clouds 25000 ft
2019/11/19 04:51 KCLE 190451Z 00000KT 6SM BR FEW250 01/M01 A2976 RMK AO2 SLP080 T00061006 401170006